sensor_id;sensor_type;location;lat;lon;timestamp;pressure;altitude;pressure_sealevel;temperature;humidity
28628;BME280;15815;46.760;19.604;2023-03-26T00:00:47;99870.75;;;8.15;84.14
28628;BME280;15815;46.760;19.604;2023-03-26T00:03:15;99872.75;;;8.04;83.76
28628;BME280;15815;46.760;19.604;2023-03-26T00:05:42;99869.16;;;7.96;83.77
28628;BME280;15815;46.760;19.604;2023-03-26T00:08:08;99878.75;;;7.99;84.21
28628;BME280;15815;46.760;19.604;2023-03-26T00:10:40;99901.94;;;7.99;83.36
28628;BME280;15815;46.760;19.604;2023-03-26T00:13:09;99892.34;;;8.00;83.22
28628;BME280;15815;46.760;19.604;2023-03-26T00:15:35;99868.75;;;7.94;82.14
28628;BME280;15815;46.760;19.604;2023-03-26T00:18:01;99870.72;;;7.94;81.47
28628;BME280;15815;46.760;19.604;2023-03-26T00:20:29;99882.34;;;7.99;80.79
28628;BME280;15815;46.760;19.604;2023-03-26T00:22:55;99890.75;;;7.96;79.77
28628;BME280;15815;46.760;19.604;2023-03-26T00:25:22;99897.16;;;7.96;79.32
28628;BME280;15815;46.760;19.604;2023-03-26T00:27:48;99878.72;;;7.88;79.28
28628;BME280;15815;46.760;19.604;2023-03-26T00:30:14;99880.31;;;7.93;78.81
28628;BME280;15815;46.760;19.604;2023-03-26T00:32:39;99859.53;;;7.83;78.27
28628;BME280;15815;46.760;19.604;2023-03-26T00:35:05;99859.13;;;7.85;77.82
28628;BME280;15815;46.760;19.604;2023-03-26T00:37:31;99842.34;;;7.78;78.61
28628;BME280;15815;46.760;19.604;2023-03-26T00:40:00;99843.16;;;7.82;78.19
28628;BME280;15815;46.760;19.604;2023-03-26T00:42:26;99861.16;;;7.95;78.02
28628;BME280;15815;46.760;19.604;2023-03-26T00:44:52;99855.94;;;7.90;77.68
28628;BME280;15815;46.760;19.604;2023-03-26T00:47:17;99850.75;;;7.85;78.06
28628;BME280;15815;46.760;19.604;2023-03-26T00:49:43;99856.34;;;7.85;76.52
28628;BME280;15815;46.760;19.604;2023-03-26T00:52:08;99845.53;;;7.83;77.04
28628;BME280;15815;46.760;19.604;2023-03-26T00:54:34;99851.94;;;7.80;77.12
28628;BME280;15815;46.760;19.604;2023-03-26T00:57:00;99847.53;;;7.72;77.01
28628;BME280;15815;46.760;19.604;2023-03-26T00:59:25;99868.31;;;7.78;76.81
28628;BME280;15815;46.760;19.604;2023-03-26T01:01:51;99849.09;;;7.59;76.72
28628;BME280;15815;46.760;19.604;2023-03-26T01:04:29;99853.09;;;7.61;76.57
28628;BME280;15815;46.760;19.604;2023-03-26T01:07:00;99861.09;;;7.66;76.76
28628;BME280;15815;46.760;19.604;2023-03-26T01:09:34;99861.88;;;7.63;76.29
28628;BME280;15815;46.760;19.604;2023-03-26T01:12:06;99869.06;;;7.57;76.28
28628;BME280;15815;46.760;19.604;2023-03-26T01:14:32;99851.41;;;7.39;76.31
28628;BME280;15815;46.760;19.604;2023-03-26T01:17:00;99867.78;;;7.37;76.22
28628;BME280;15815;46.760;19.604;2023-03-26T01:22:24;99872.16;;;7.24;76.34
28628;BME280;15815;46.760;19.604;2023-03-26T01:24:51;99870.47;;;7.08;76.48
28628;BME280;15815;46.760;19.604;2023-03-26T01:29:57;99864.44;;;6.99;76.44
28628;BME280;15815;46.760;19.604;2023-03-26T01:35:38;99866.03;;;7.00;76.83
28628;BME280;15815;46.760;19.604;2023-03-26T01:40:55;99867.22;;;6.96;76.69
28628;BME280;15815;46.760;19.604;2023-03-26T01:43:40;99864.38;;;6.85;76.83
28628;BME280;15815;46.760;19.604;2023-03-26T01:46:12;99874.34;;;6.86;76.88
28628;BME280;15815;46.760;19.604;2023-03-26T01:48:41;99858.34;;;6.83;76.68
28628;BME280;15815;46.760;19.604;2023-03-26T01:51:09;99872.75;;;6.85;76.81
28628;BME280;15815;46.760;19.604;2023-03-26T01:53:40;99863.13;;;6.79;77.19
28628;BME280;15815;46.760;19.604;2023-03-26T01:56:23;99866.31;;;6.81;77.14
28628;BME280;15815;46.760;19.604;2023-03-26T02:04:26;99869.50;;;6.76;77.75
28628;BME280;15815;46.760;19.604;2023-03-26T02:07:26;99867.88;;;6.75;77.98
28628;BME280;15815;46.760;19.604;2023-03-26T02:10:11;99867.84;;;6.68;77.87
28628;BME280;15815;46.760;19.604;2023-03-26T02:12:39;99873.44;;;6.71;77.84
28628;BME280;15815;46.760;19.604;2023-03-26T02:15:06;99866.66;;;6.69;77.95
28628;BME280;15815;46.760;19.604;2023-03-26T02:17:32;99849.44;;;6.60;78.63
28628;BME280;15815;46.760;19.604;2023-03-26T02:19:57;99863.84;;;6.65;78.21
28628;BME280;15815;46.760;19.604;2023-03-26T02:22:23;99852.63;;;6.58;78.96
28628;BME280;15815;46.760;19.604;2023-03-26T02:24:48;99855.03;;;6.60;79.10
28628;BME280;15815;46.760;19.604;2023-03-26T02:27:15;99857.41;;;6.58;78.75
28628;BME280;15815;46.760;19.604;2023-03-26T02:29:40;99863.41;;;6.60;79.16
28628;BME280;15815;46.760;19.604;2023-03-26T02:32:07;99863.81;;;6.58;79.30
28628;BME280;15815;46.760;19.604;2023-03-26T02:34:33;99861.03;;;6.62;80.11
28628;BME280;15815;46.760;19.604;2023-03-26T02:36:59;99845.78;;;6.52;79.56
28628;BME280;15815;46.760;19.604;2023-03-26T02:39:26;99841.41;;;6.51;79.39
28628;BME280;15815;46.760;19.604;2023-03-26T02:41:51;99857.41;;;6.58;79.58
28628;BME280;15815;46.760;19.604;2023-03-26T02:44:17;99836.56;;;6.44;79.69
28628;BME280;15815;46.760;19.604;2023-03-26T02:46:42;99850.16;;;6.49;79.53
28628;BME280;15815;46.760;19.604;2023-03-26T02:49:08;99859.72;;;6.48;79.36
28628;BME280;15815;46.760;19.604;2023-03-26T02:51:34;99851.69;;;6.36;79.50
28628;BME280;15815;46.760;19.604;2023-03-26T02:54:00;99865.25;;;6.38;79.91
28628;BME280;15815;46.760;19.604;2023-03-26T02:56:26;99855.56;;;6.28;79.67
28628;BME280;15815;46.760;19.604;2023-03-26T02:58:52;99876.00;;;6.36;79.69
28628;BME280;15815;46.760;19.604;2023-03-26T03:01:18;99853.94;;;6.20;79.84
28628;BME280;15815;46.760;19.604;2023-03-26T03:03:44;99877.16;;;6.31;80.12
28628;BME280;15815;46.760;19.604;2023-03-26T03:06:09;99874.72;;;6.30;80.24
28628;BME280;15815;46.760;19.604;2023-03-26T03:08:35;99865.91;;;6.24;80.23
28628;BME280;15815;46.760;19.604;2023-03-26T03:11:06;99870.66;;;6.20;80.29
28628;BME280;15815;46.760;19.604;2023-03-26T03:13:32;99867.06;;;6.16;80.28
28628;BME280;15815;46.760;19.604;2023-03-26T03:15:58;99872.28;;;6.21;80.10
28628;BME280;15815;46.760;19.604;2023-03-26T03:18:23;99874.66;;;6.19;79.84
28628;BME280;15815;46.760;19.604;2023-03-26T03:20:49;99865.03;;;6.13;79.97
28628;BME280;15815;46.760;19.604;2023-03-26T03:23:15;99863.81;;;6.10;79.71
28628;BME280;15815;46.760;19.604;2023-03-26T03:25:41;99873.44;;;6.16;80.04
28628;BME280;15815;46.760;19.604;2023-03-26T03:28:07;99856.19;;;6.04;79.60
28628;BME280;15815;46.760;19.604;2023-03-26T03:30:34;99866.63;;;6.10;79.98
28628;BME280;15815;46.760;19.604;2023-03-26T03:32:59;99864.25;;;6.12;79.68
28628;BME280;15815;46.760;19.604;2023-03-26T03:35:29;99870.19;;;6.11;80.09
28628;BME280;15815;46.760;19.604;2023-03-26T03:37:56;99871.78;;;6.08;80.07
28628;BME280;15815;46.760;19.604;2023-03-26T03:40:21;99874.97;;;6.07;80.00
28628;BME280;15815;46.760;19.604;2023-03-26T03:42:47;99866.59;;;6.07;80.37
28628;BME280;15815;46.760;19.604;2023-03-26T03:45:12;99867.78;;;6.06;79.81
28628;BME280;15815;46.760;19.604;2023-03-26T03:47:38;99869.75;;;6.05;80.24
28628;BME280;15815;46.760;19.604;2023-03-26T03:50:07;99855.28;;;5.93;79.83
28628;BME280;15815;46.760;19.604;2023-03-26T03:52:33;99853.69;;;5.92;79.75
28628;BME280;15815;46.760;19.604;2023-03-26T03:54:59;99852.78;;;5.84;79.26
28628;BME280;15815;46.760;19.604;2023-03-26T03:57:25;99871.22;;;5.92;79.47
28628;BME280;15815;46.760;19.604;2023-03-26T03:59:51;99853.53;;;5.77;79.50
28628;BME280;15815;46.760;19.604;2023-03-26T04:02:18;99858.25;;;5.73;79.66
28628;BME280;15815;46.760;19.604;2023-03-26T04:04:44;99870.28;;;5.81;79.42
28628;BME280;15815;46.760;19.604;2023-03-26T04:07:09;99879.03;;;5.79;79.87
28628;BME280;15815;46.760;19.604;2023-03-26T04:09:35;99866.66;;;5.77;79.73
28628;BME280;15815;46.760;19.604;2023-03-26T04:12:00;99850.53;;;5.59;80.07
28628;BME280;15815;46.760;19.604;2023-03-26T04:14:26;99860.19;;;5.69;80.05
28628;BME280;15815;46.760;19.604;2023-03-26T04:16:51;99840.13;;;5.53;79.94
28628;BME280;15815;46.760;19.604;2023-03-26T04:19:17;99853.38;;;5.63;80.61
28628;BME280;15815;46.760;19.604;2023-03-26T04:21:42;99848.50;;;5.53;80.64
28628;BME280;15815;46.760;19.604;2023-03-26T04:24:08;99865.22;;;5.53;80.50
28628;BME280;15815;46.760;19.604;2023-03-26T04:26:34;99866.72;;;5.47;80.62
28628;BME280;15815;46.760;19.604;2023-03-26T04:29:03;99878.66;;;5.47;80.76
28628;BME280;15815;46.760;19.604;2023-03-26T04:31:29;99856.94;;;5.26;82.58
28628;BME280;15815;46.760;19.604;2023-03-26T04:33:58;99863.78;;;5.33;81.73
28628;BME280;15815;46.760;19.604;2023-03-26T04:36:28;99887.41;;;5.46;81.44
28628;BME280;15815;46.760;19.604;2023-03-26T04:38:55;99881.38;;;5.40;80.94
28628;BME280;15815;46.760;19.604;2023-03-26T04:41:21;99862.53;;;5.26;81.25
28628;BME280;15815;46.760;19.604;2023-03-26T04:43:47;99874.56;;;5.34;81.71
28628;BME280;15815;46.760;19.604;2023-03-26T04:46:13;99872.16;;;5.33;80.96
28628;BME280;15815;46.760;19.604;2023-03-26T04:48:38;99872.91;;;5.30;81.47
28628;BME280;15815;46.760;19.604;2023-03-26T04:51:04;99856.00;;;5.15;81.48
28628;BME280;15815;46.760;19.604;2023-03-26T04:53:30;99875.91;;;5.17;81.68
28628;BME280;15815;46.760;19.604;2023-03-26T04:58:27;99888.84;;;4.99;82.14
28628;BME280;15815;46.760;19.604;2023-03-26T05:00:52;99876.97;;;5.06;82.39
28628;BME280;15815;46.760;19.604;2023-03-26T05:03:18;99893.22;;;5.00;82.99
28628;BME280;15815;46.760;19.604;2023-03-26T05:05:44;99873.63;;;4.93;82.72
28628;BME280;15815;46.760;19.604;2023-03-26T05:08:09;99885.66;;;5.01;82.71
28628;BME280;15815;46.760;19.604;2023-03-26T05:10:35;99893.34;;;5.11;82.51
28628;BME280;15815;46.760;19.604;2023-03-26T05:13:00;99887.03;;;5.14;82.20
28628;BME280;15815;46.760;19.604;2023-03-26T05:15:26;99911.31;;;5.47;81.95
28628;BME280;15815;46.760;19.604;2023-03-26T05:17:51;99892.22;;;5.82;82.08
28628;BME280;15815;46.760;19.604;2023-03-26T05:20:20;99907.59;;;6.47;81.22
28628;BME280;15815;46.760;19.604;2023-03-26T05:22:49;99928.75;;;7.06;80.71
28628;BME280;15815;46.760;19.604;2023-03-26T05:25:16;99925.63;;;7.19;81.48
28628;BME280;15815;46.760;19.604;2023-03-26T05:27:42;99910.28;;;6.88;81.53
28628;BME280;15815;46.760;19.604;2023-03-26T05:30:08;99911.75;;;7.40;80.32
28628;BME280;15815;46.760;19.604;2023-03-26T05:32:33;99913.19;;;8.46;78.82
28628;BME280;15815;46.760;19.604;2023-03-26T05:34:59;99891.50;;;9.17;78.85
28628;BME280;15815;46.760;19.604;2023-03-26T05:37:25;99899.16;;;9.94;78.90
28628;BME280;15815;46.760;19.604;2023-03-26T05:39:56;99905.06;;;10.65;77.48
28628;BME280;15815;46.760;19.604;2023-03-26T05:42:22;99915.31;;;11.27;78.96
28628;BME280;15815;46.760;19.604;2023-03-26T05:44:47;99921.53;;;11.76;78.74
28628;BME280;15815;46.760;19.604;2023-03-26T05:47:13;99919.97;;;12.32;79.26
28628;BME280;15815;46.760;19.604;2023-03-26T05:49:39;99922.34;;;12.84;78.88
28628;BME280;15815;46.760;19.604;2023-03-26T05:52:04;99932.19;;;13.43;78.02
28628;BME280;15815;46.760;19.604;2023-03-26T05:54:30;99919.28;;;13.81;80.76
28628;BME280;15815;46.760;19.604;2023-03-26T05:56:55;99914.06;;;14.16;77.94
28628;BME280;15815;46.760;19.604;2023-03-26T05:59:21;99911.84;;;14.60;80.03
28628;BME280;15815;46.760;19.604;2023-03-26T06:01:50;99908.28;;;14.88;80.35
28628;BME280;15815;46.760;19.604;2023-03-26T06:04:19;99892.03;;;15.50;77.31
28628;BME280;15815;46.760;19.604;2023-03-26T06:06:45;99877.31;;;15.97;79.21
28628;BME280;15815;46.760;19.604;2023-03-26T06:09:11;99894.22;;;16.51;78.92
28628;BME280;15815;46.760;19.604;2023-03-26T06:11:36;99895.63;;;16.94;77.63
28628;BME280;15815;46.760;19.604;2023-03-26T06:14:03;99902.03;;;17.20;76.42
28628;BME280;15815;46.760;19.604;2023-03-26T06:16:28;99882.25;;;17.73;77.02
28628;BME280;15815;46.760;19.604;2023-03-26T06:18:54;99877.22;;;18.08;73.37
28628;BME280;15815;46.760;19.604;2023-03-26T06:21:20;99881.66;;;18.40;70.81
28628;BME280;15815;46.760;19.604;2023-03-26T06:23:49;99898.09;;;18.45;65.40
28628;BME280;15815;46.760;19.604;2023-03-26T06:26:15;99872.59;;;18.72;65.79
28628;BME280;15815;46.760;19.604;2023-03-26T06:28:40;99868.84;;;19.21;70.11
28628;BME280;15815;46.760;19.604;2023-03-26T06:31:06;99891.47;;;19.61;70.87
28628;BME280;15815;46.760;19.604;2023-03-26T06:33:31;99876.66;;;19.99;65.27
28628;BME280;15815;46.760;19.604;2023-03-26T06:35:57;99874.63;;;20.00;64.10
28628;BME280;15815;46.760;19.604;2023-03-26T06:38:23;99877.75;;;20.77;68.88
28628;BME280;15815;46.760;19.604;2023-03-26T06:40:49;99880.50;;;21.19;67.11
28628;BME280;15815;46.760;19.604;2023-03-26T06:43:14;99881.03;;;21.33;67.44
28628;BME280;15815;46.760;19.604;2023-03-26T06:45:40;99869.56;;;20.94;67.25
28628;BME280;15815;46.760;19.604;2023-03-26T06:48:05;99873.78;;;21.61;62.88
28628;BME280;15815;46.760;19.604;2023-03-26T06:50:31;99880.50;;;21.19;56.04
28628;BME280;15815;46.760;19.604;2023-03-26T06:52:57;99876.47;;;21.79;61.66
28628;BME280;15815;46.760;19.604;2023-03-26T06:55:23;99886.00;;;22.50;59.20
28628;BME280;15815;46.760;19.604;2023-03-26T06:57:50;99884.72;;;22.51;57.34
28628;BME280;15815;46.760;19.604;2023-03-26T07:00:16;99901.81;;;22.80;56.56
28628;BME280;15815;46.760;19.604;2023-03-26T07:02:41;99896.91;;;23.42;57.32
28628;BME280;15815;46.760;19.604;2023-03-26T07:05:07;99880.50;;;23.63;57.43
28628;BME280;15815;46.760;19.604;2023-03-26T07:07:33;99883.72;;;24.02;53.29
28628;BME280;15815;46.760;19.604;2023-03-26T07:09:58;99904.22;;;24.15;50.65
28628;BME280;15815;46.760;19.604;2023-03-26T07:12:24;99904.13;;;24.67;52.92
28628;BME280;15815;46.760;19.604;2023-03-26T07:14:50;99919.28;;;25.05;50.87
28628;BME280;15815;46.760;19.604;2023-03-26T07:17:16;99905.38;;;24.60;47.38
28628;BME280;15815;46.760;19.604;2023-03-26T07:19:43;99932.66;;;25.19;48.95
28628;BME280;15815;46.760;19.604;2023-03-26T07:22:20;99929.69;;;25.50;38.69
28628;BME280;15815;46.760;19.604;2023-03-26T07:24:46;99933.09;;;25.54;43.52
28628;BME280;15815;46.760;19.604;2023-03-26T07:35:48;99922.47;;;25.83;36.45
28628;BME280;15815;46.760;19.604;2023-03-26T07:46:13;99901.47;;;27.22;36.06
28628;BME280;15815;46.760;19.604;2023-03-26T07:48:43;99911.09;;;27.42;32.05
28628;BME280;15815;46.760;19.604;2023-03-26T07:51:10;99918.78;;;27.80;33.08
28628;BME280;15815;46.760;19.604;2023-03-26T07:53:36;99919.19;;;28.01;34.01
28628;BME280;15815;46.760;19.604;2023-03-26T07:56:09;99919.56;;;28.22;32.03
28628;BME280;15815;46.760;19.604;2023-03-26T08:07:17;99911.81;;;29.20;29.05
28628;BME280;15815;46.760;19.604;2023-03-26T08:10:18;99928.16;;;30.17;27.98
28628;BME280;15815;46.760;19.604;2023-03-26T08:12:54;99920.19;;;29.23;29.46
28628;BME280;15815;46.760;19.604;2023-03-26T08:15:36;99912.31;;;28.70;26.66
28628;BME280;15815;46.760;19.604;2023-03-26T08:18:24;99919.78;;;27.88;26.15
28628;BME280;15815;46.760;19.604;2023-03-26T08:21:14;99912.56;;;27.65;26.83
28628;BME280;15815;46.760;19.604;2023-03-26T08:24:14;99912.97;;;27.86;26.82
28628;BME280;15815;46.760;19.604;2023-03-26T08:29:56;99906.09;;;28.60;27.13
28628;BME280;15815;46.760;19.604;2023-03-26T08:32:19;99899.91;;;28.75;26.52
28628;BME280;15815;46.760;19.604;2023-03-26T08:34:45;99905.59;;;29.35;26.55
28628;BME280;15815;46.760;19.604;2023-03-26T08:37:14;99897.34;;;29.63;27.14
28628;BME280;15815;46.760;19.604;2023-03-26T08:39:39;99902.50;;;29.70;27.23
28628;BME280;15815;46.760;19.604;2023-03-26T08:50:46;99902.47;;;31.64;24.07
28628;BME280;15815;46.760;19.604;2023-03-26T09:01:53;99881.53;;;31.19;22.47
28628;BME280;15815;46.760;19.604;2023-03-26T09:12:41;99875.31;;;32.09;22.95
28628;BME280;15815;46.760;19.604;2023-03-26T09:23:45;99851.75;;;32.62;19.91
28628;BME280;15815;46.760;19.604;2023-03-26T09:26:28;99846.19;;;32.43;19.08
28628;BME280;15815;46.760;19.604;2023-03-26T09:38:10;99837.94;;;32.83;19.07
28628;BME280;15815;46.760;19.604;2023-03-26T09:43:42;99809.75;;;32.78;18.27
28628;BME280;15815;46.760;19.604;2023-03-26T09:55:05;99799.47;;;32.77;19.75
28628;BME280;15815;46.760;19.604;2023-03-26T10:02:49;99803.69;;;33.33;18.98
28628;BME280;15815;46.760;19.604;2023-03-26T10:16:33;99798.78;;;33.28;19.62
28628;BME280;15815;46.760;19.604;2023-03-26T10:19:11;99774.66;;;32.48;19.11
28628;BME280;15815;46.760;19.604;2023-03-26T10:27:12;99761.66;;;33.13;18.73
28628;BME280;15815;46.760;19.604;2023-03-26T10:32:45;99758.50;;;32.68;19.34
28628;BME280;15815;46.760;19.604;2023-03-26T10:41:17;99743.63;;;34.12;19.07
28628;BME280;15815;46.760;19.604;2023-03-26T10:46:51;99723.56;;;33.55;17.27
28628;BME280;15815;46.760;19.604;2023-03-26T10:49:46;99728.78;;;32.90;17.13
28628;BME280;15815;46.760;19.604;2023-03-26T10:52:21;99723.38;;;32.66;18.26
28628;BME280;15815;46.760;19.604;2023-03-26T10:54:54;99719.66;;;32.29;18.63
28628;BME280;15815;46.760;19.604;2023-03-26T10:57:40;99709.63;;;31.67;18.96
28628;BME280;15815;46.760;19.604;2023-03-26T11:10:49;99696.94;;;30.89;19.66
28628;BME280;15815;46.760;19.604;2023-03-26T11:13:28;99687.59;;;30.57;19.27
28628;BME280;15815;46.760;19.604;2023-03-26T11:16:03;99699.91;;;31.10;20.67
28628;BME280;15815;46.760;19.604;2023-03-26T11:21:16;99684.47;;;29.57;19.63
28628;BME280;15815;46.760;19.604;2023-03-26T11:26:53;99659.75;;;28.24;20.03
28628;BME280;15815;46.760;19.604;2023-03-26T11:32:12;99658.53;;;26.94;21.77
28628;BME280;15815;46.760;19.604;2023-03-26T11:34:59;99648.97;;;27.46;21.61
28628;BME280;15815;46.760;19.604;2023-03-26T11:37:36;99629.66;;;27.89;21.59
28628;BME280;15815;46.760;19.604;2023-03-26T11:40:11;99652.97;;;27.73;20.70
28628;BME280;15815;46.760;19.604;2023-03-26T11:42:40;99623.13;;;27.59;21.30
28628;BME280;15815;46.760;19.604;2023-03-26T11:45:17;99612.06;;;26.62;21.85
28628;BME280;15815;46.760;19.604;2023-03-26T11:47:48;99590.41;;;25.80;22.67
28628;BME280;15815;46.760;19.604;2023-03-26T11:50:15;99626.56;;;25.25;23.06
28628;BME280;15815;46.760;19.604;2023-03-26T11:52:43;99614.78;;;25.07;22.85
28628;BME280;15815;46.760;19.604;2023-03-26T11:55:12;99600.78;;;26.00;22.80
28628;BME280;15815;46.760;19.604;2023-03-26T11:57:39;99589.16;;;25.48;21.26
28628;BME280;15815;46.760;19.604;2023-03-26T12:00:18;99611.31;;;24.75;23.10
28628;BME280;15815;46.760;19.604;2023-03-26T12:02:47;99585.50;;;24.97;23.68
28628;BME280;15815;46.760;19.604;2023-03-26T12:05:20;99597.47;;;24.73;23.81
28628;BME280;15815;46.760;19.604;2023-03-26T12:07:54;99583.13;;;25.18;24.12
28628;BME280;15815;46.760;19.604;2023-03-26T12:10:32;99577.63;;;25.42;23.14
28628;BME280;15815;46.760;19.604;2023-03-26T12:13:51;99571.88;;;25.53;23.07
28628;BME280;15815;46.760;19.604;2023-03-26T12:16:18;99575.56;;;25.15;22.63
28628;BME280;15815;46.760;19.604;2023-03-26T12:19:04;99559.91;;;25.05;23.18
28628;BME280;15815;46.760;19.604;2023-03-26T12:21:54;99558.06;;;25.02;22.04
28628;BME280;15815;46.760;19.604;2023-03-26T12:26:58;99539.50;;;25.14;23.39
28628;BME280;15815;46.760;19.604;2023-03-26T12:29:28;99534.00;;;24.71;23.50
28628;BME280;15815;46.760;19.604;2023-03-26T12:32:15;99546.75;;;24.48;22.94
28628;BME280;15815;46.760;19.604;2023-03-26T12:34:53;99550.25;;;24.09;22.78
28628;BME280;15815;46.760;19.604;2023-03-26T12:37:37;99499.00;;;23.68;23.16
28628;BME280;15815;46.760;19.604;2023-03-26T12:40:30;99520.31;;;24.27;22.99
28628;BME280;15815;46.760;19.604;2023-03-26T12:42:59;99489.28;;;24.37;24.39
28628;BME280;15815;46.760;19.604;2023-03-26T12:45:53;99493.97;;;24.28;22.99
28628;BME280;15815;46.760;19.604;2023-03-26T13:09:32;99471.00;;;24.28;24.45
28628;BME280;15815;46.760;19.604;2023-03-26T13:24:04;99472.09;;;23.18;24.75
28628;BME280;15815;46.760;19.604;2023-03-26T13:37:46;99424.84;;;22.07;26.38
28628;BME280;15815;46.760;19.604;2023-03-26T13:40:35;99401.34;;;22.24;26.74
28628;BME280;15815;46.760;19.604;2023-03-26T13:44:26;99407.28;;;21.68;26.89
28628;BME280;15815;46.760;19.604;2023-03-26T13:46:33;99417.41;;;21.69;26.29
28628;BME280;15815;46.760;19.604;2023-03-26T13:51:49;99417.97;;;21.73;26.83
28628;BME280;15815;46.760;19.604;2023-03-26T13:54:24;99397.25;;;21.58;27.00
28628;BME280;15815;46.760;19.604;2023-03-26T13:57:04;99381.69;;;21.18;27.22
28628;BME280;15815;46.760;19.604;2023-03-26T13:59:44;99377.16;;;21.26;26.70
28628;BME280;15815;46.760;19.604;2023-03-26T14:02:49;99388.75;;;21.23;26.21
28628;BME280;15815;46.760;19.604;2023-03-26T14:05:30;99389.75;;;21.20;26.43
28628;BME280;15815;46.760;19.604;2023-03-26T14:08:03;99394.69;;;21.19;27.13
28628;BME280;15815;46.760;19.604;2023-03-26T14:10:36;99395.69;;;21.16;27.13
28628;BME280;15815;46.760;19.604;2023-03-26T14:13:12;99365.81;;;20.97;27.36
28628;BME280;15815;46.760;19.604;2023-03-26T14:15:46;99382.31;;;21.08;27.60
28628;BME280;15815;46.760;19.604;2023-03-26T14:23:57;99378.28;;;20.79;28.06
28628;BME280;15815;46.760;19.604;2023-03-26T14:33:33;99375.81;;;20.52;27.81
28628;BME280;15815;46.760;19.604;2023-03-26T14:35:30;99347.97;;;20.47;27.75
28628;BME280;15815;46.760;19.604;2023-03-26T14:40:56;99364.59;;;20.63;28.53
28628;BME280;15815;46.760;19.604;2023-03-26T14:46:29;99361.28;;;20.20;28.03
28628;BME280;15815;46.760;19.604;2023-03-26T14:54:37;99331.78;;;19.94;28.43
28628;BME280;15815;46.760;19.604;2023-03-26T15:08:09;99314.91;;;19.90;28.49
28628;BME280;15815;46.760;19.604;2023-03-26T15:21:57;99298.38;;;19.50;28.55
28628;BME280;15815;46.760;19.604;2023-03-26T15:42:13;99267.00;;;18.82;29.14
28628;BME280;15815;46.760;19.604;2023-03-26T15:47:39;99262.25;;;18.64;29.63
28628;BME280;15815;46.760;19.604;2023-03-26T15:50:31;99256.56;;;18.55;29.41
28628;BME280;15815;46.760;19.604;2023-03-26T15:59:07;99224.03;;;18.08;30.32
28628;BME280;15815;46.760;19.604;2023-03-26T16:04:51;99238.44;;;17.96;30.84
28628;BME280;15815;46.760;19.604;2023-03-26T16:13:26;99233.81;;;17.65;30.79
28628;BME280;15815;46.760;19.604;2023-03-26T16:18:30;99224.56;;;17.46;31.07
28628;BME280;15815;46.760;19.604;2023-03-26T16:21:33;99216.41;;;17.30;31.27
28628;BME280;15815;46.760;19.604;2023-03-26T16:30:15;99198.47;;;17.06;31.93
28628;BME280;15815;46.760;19.604;2023-03-26T16:32:55;99201.97;;;17.01;32.14
28628;BME280;15815;46.760;19.604;2023-03-26T16:38:17;99183.34;;;16.90;32.20
28628;BME280;15815;46.760;19.604;2023-03-26T16:41:18;99190.16;;;16.84;32.61
28628;BME280;15815;46.760;19.604;2023-03-26T16:49:29;99181.94;;;16.58;33.30
28628;BME280;15815;46.760;19.604;2023-03-26T16:55:39;99175.31;;;16.34;33.70
28628;BME280;15815;46.760;19.604;2023-03-26T16:59:05;99182.56;;;16.26;33.72
28628;BME280;15815;46.760;19.604;2023-03-26T17:04:09;99160.31;;;15.97;34.38
28628;BME280;15815;46.760;19.604;2023-03-26T17:09:58;99171.75;;;15.84;34.58
28628;BME280;15815;46.760;19.604;2023-03-26T17:12:43;99166.38;;;15.68;35.37
28628;BME280;15815;46.760;19.604;2023-03-26T17:15:40;99164.16;;;15.63;35.37
28628;BME280;15815;46.760;19.604;2023-03-26T17:18:20;99155.41;;;15.48;35.01
28628;BME280;15815;46.760;19.604;2023-03-26T17:21:13;99150.78;;;15.32;35.92
28628;BME280;15815;46.760;19.604;2023-03-26T17:27:07;99156.84;;;15.22;35.93
28628;BME280;15815;46.760;19.604;2023-03-26T17:29:59;99152.28;;;15.15;36.78
28628;BME280;15815;46.760;19.604;2023-03-26T17:32:58;99142.28;;;15.01;37.88
28628;BME280;15815;46.760;19.604;2023-03-26T17:35:47;99145.50;;;14.81;36.59
28628;BME280;15815;46.760;19.604;2023-03-26T17:41:07;99141.50;;;14.79;36.49
28628;BME280;15815;46.760;19.604;2023-03-26T17:43:50;99132.41;;;14.53;36.65
28628;BME280;15815;46.760;19.604;2023-03-26T17:49:26;99140.44;;;14.55;37.18
28628;BME280;15815;46.760;19.604;2023-03-26T17:52:04;99127.66;;;14.50;37.36
28628;BME280;15815;46.760;19.604;2023-03-26T17:54:49;99118.09;;;14.35;37.71
28628;BME280;15815;46.760;19.604;2023-03-26T17:57:20;99120.59;;;14.33;37.12
28628;BME280;15815;46.760;19.604;2023-03-26T17:59:48;99114.06;;;14.23;37.11
28628;BME280;15815;46.760;19.604;2023-03-26T18:02:20;99107.75;;;14.19;37.30
28628;BME280;15815;46.760;19.604;2023-03-26T18:04:50;99098.56;;;14.06;37.68
28628;BME280;15815;46.760;19.604;2023-03-26T18:18:57;99113.03;;;13.95;38.46
28628;BME280;15815;46.760;19.604;2023-03-26T18:21:36;99107.97;;;13.90;37.90
28628;BME280;15815;46.760;19.604;2023-03-26T18:24:05;99092.00;;;13.74;38.66
28628;BME280;15815;46.760;19.604;2023-03-26T18:26:38;99083.28;;;13.69;38.50
28628;BME280;15815;46.760;19.604;2023-03-26T18:29:21;99106.97;;;13.84;38.46
28628;BME280;15815;46.760;19.604;2023-03-26T18:31:53;99094.03;;;13.61;38.31
28628;BME280;15815;46.760;19.604;2023-03-26T18:34:20;99101.00;;;13.69;38.88
28628;BME280;15815;46.760;19.604;2023-03-26T18:39:23;99093.03;;;13.55;39.29
28628;BME280;15815;46.760;19.604;2023-03-26T18:41:49;99067.31;;;13.40;39.13
28628;BME280;15815;46.760;19.604;2023-03-26T18:44:16;99092.59;;;13.56;39.46
28628;BME280;15815;46.760;19.604;2023-03-26T18:46:43;99100.59;;;13.58;39.45
28628;BME280;15815;46.760;19.604;2023-03-26T18:49:14;99099.81;;;13.57;39.82
28628;BME280;15815;46.760;19.604;2023-03-26T18:51:42;99103.75;;;13.60;39.77
28628;BME280;15815;46.760;19.604;2023-03-26T18:54:16;99060.53;;;13.38;39.87